Time;durP1;ratioP1;P1;durP2;ratioP2;P2;SDS_P1;SDS_P2;PMS_P1;PMS_P2;Temp;Humidity;BMP_temperature;BMP_pressure;BME280_temperature;BME280_humidity;BME280_pressure;Samples;Min_cycle;Max_cycle;Signal;HPM_P1;HPM_P2
2023/12/28 00:01:46;;;;;;;1.95;1.40;;;12.30;99.90;;;;;;5036741;28;20309;-63
2023/12/28 00:04:11;;;;;;;2.10;1.20;;;12.30;99.90;;;;;;5036439;28;20265;-63
2023/12/28 00:06:37;;;;;;;1.75;1.30;;;12.30;99.90;;;;;;5015493;28;20181;-63
2023/12/28 00:09:02;;;;;;;1.80;1.33;;;12.30;99.90;;;;;;5023817;28;20202;-64
2023/12/28 00:11:28;;;;;;;1.85;1.35;;;12.30;99.90;;;;;;5036999;28;20201;-63
2023/12/28 00:13:54;;;;;;;1.80;1.15;;;12.30;99.90;;;;;;5027738;28;20214;-64
2023/12/28 00:16:19;;;;;;;1.42;1.30;;;12.20;99.90;;;;;;5018134;28;20182;-63
2023/12/28 00:18:45;;;;;;;2.15;1.30;;;12.30;99.90;;;;;;5016491;28;20278;-64
2023/12/28 00:21:10;;;;;;;1.70;1.15;;;12.20;99.90;;;;;;5017786;28;20210;-64
2023/12/28 00:23:38;;;;;;;1.63;1.10;;;12.20;99.90;;;;;;5019877;28;20186;-63
2023/12/28 00:26:04;;;;;;;1.52;1.20;;;12.30;99.90;;;;;;5023880;28;20174;-63
2023/12/28 00:28:29;;;;;;;1.95;1.05;;;12.30;99.90;;;;;;5018994;28;20197;-64
2023/12/28 00:30:57;;;;;;;2.08;1.20;;;12.30;99.90;;;;;;5031245;28;20275;-64
2023/12/28 00:33:23;;;;;;;1.67;1.02;;;12.30;99.90;;;;;;5027942;28;20197;-64
2023/12/28 00:35:51;;;;;;;3.20;1.00;;;12.30;99.90;;;;;;5019216;28;20774;-64
2023/12/28 00:38:16;;;;;;;2.13;1.33;;;12.30;99.90;;;;;;5018078;28;20201;-63
2023/12/28 00:40:47;;;;;;;1.80;1.20;;;12.30;99.90;;;;;;5004780;28;20201;-63
2023/12/28 00:43:12;;;;;;;1.92;1.10;;;12.30;99.90;;;;;;5019552;28;20182;-63
2023/12/28 00:45:40;;;;;;;1.58;1.20;;;12.20;99.90;;;;;;5034806;28;20182;-64
2023/12/28 00:48:08;;;;;;;1.20;0.88;;;12.20;99.90;;;;;;5023027;28;20185;-64
2023/12/28 00:50:34;;;;;;;1.73;0.80;;;12.20;99.90;;;;;;5020294;28;20178;-64
2023/12/28 00:53:01;;;;;;;1.77;1.00;;;12.30;99.90;;;;;;5024573;28;20201;-64
2023/12/28 00:55:27;;;;;;;1.88;1.00;;;12.10;99.90;;;;;;5025016;28;20174;-63
2023/12/28 00:57:53;;;;;;;1.13;0.90;;;12.10;99.90;;;;;;5014008;28;20201;-63
2023/12/28 01:00:19;;;;;;;1.70;0.98;;;12.10;99.90;;;;;;5017860;28;20194;-64
2023/12/28 01:02:46;;;;;;;1.00;0.90;;;12.10;99.90;;;;;;5002446;28;20178;-63
2023/12/28 01:05:13;;;;;;;1.10;0.90;;;12.10;99.90;;;;;;5030317;28;20339;-63
2023/12/28 01:07:38;;;;;;;1.10;0.98;;;12.10;99.90;;;;;;5010855;28;20257;-64
2023/12/28 01:10:04;;;;;;;1.25;0.98;;;12.10;99.90;;;;;;5018567;28;20261;-63
2023/12/28 01:12:33;;;;;;;1.00;0.88;;;12.10;99.90;;;;;;5017648;28;20267;-63
2023/12/28 01:15:01;;;;;;;1.67;1.00;;;12.00;99.90;;;;;;5018227;28;20177;-64
2023/12/28 01:17:27;;;;;;;0.90;0.70;;;12.10;99.90;;;;;;5018314;28;20221;-66
2023/12/28 01:19:52;;;;;;;1.25;0.80;;;12.10;99.90;;;;;;5018895;28;20358;-67
2023/12/28 01:22:18;;;;;;;0.95;0.70;;;12.00;99.90;;;;;;5017641;28;20224;-67
2023/12/28 01:24:46;;;;;;;1.60;1.10;;;12.00;99.90;;;;;;5023969;28;20208;-69
2023/12/28 01:27:14;;;;;;;2.25;0.85;;;12.00;99.90;;;;;;5016278;28;20210;-68
2023/12/28 01:29:40;;;;;;;1.35;0.82;;;12.10;99.90;;;;;;5022156;28;20272;-69
2023/12/28 01:32:06;;;;;;;0.95;0.70;;;12.10;99.90;;;;;;5015322;28;20274;-70
2023/12/28 01:34:31;;;;;;;0.80;0.70;;;12.10;99.90;;;;;;5001283;28;20178;-69
2023/12/28 01:37:00;;;;;;;1.38;0.70;;;12.00;99.90;;;;;;5018677;28;20177;-70
2023/12/28 01:39:26;;;;;;;1.65;0.82;;;12.10;99.90;;;;;;5017121;28;20174;-68
2023/12/28 01:41:51;;;;;;;1.17;0.90;;;12.00;99.90;;;;;;5011156;28;20228;-69
2023/12/28 01:44:17;;;;;;;0.90;0.80;;;12.10;99.90;;;;;;5014160;28;20302;-68
2023/12/28 01:46:42;;;;;;;1.42;0.88;;;12.10;99.90;;;;;;4998880;28;20210;-67
2023/12/28 01:49:10;;;;;;;1.08;0.80;;;12.00;99.90;;;;;;5015817;28;20178;-69
2023/12/28 01:51:37;;;;;;;1.23;0.90;;;12.00;99.90;;;;;;5015171;28;20260;-69
2023/12/28 01:54:03;;;;;;;1.20;1.05;;;12.00;99.90;;;;;;5018581;28;20182;-67
2023/12/28 01:56:29;;;;;;;1.05;0.80;;;12.00;99.90;;;;;;5017300;28;20239;-68
2023/12/28 01:58:57;;;;;;;0.90;0.70;;;11.90;99.90;;;;;;5015429;28;20179;-68
2023/12/28 02:01:26;;;;;;;1.13;0.80;;;11.90;99.90;;;;;;5046135;28;20269;-68
2023/12/28 02:03:52;;;;;;;0.75;0.75;;;11.90;99.90;;;;;;5025892;28;20202;-66
2023/12/28 02:06:19;;;;;;;1.45;1.10;;;11.80;99.90;;;;;;5017861;28;20204;-69
2023/12/28 02:08:44;;;;;;;1.10;0.90;;;11.80;99.90;;;;;;5017590;28;20201;-68
2023/12/28 02:11:10;;;;;;;1.25;0.80;;;11.80;99.90;;;;;;5019034;28;20205;-67
2023/12/28 02:13:36;;;;;;;1.40;0.90;;;11.80;99.90;;;;;;5022907;28;20174;-67
2023/12/28 02:16:39;;;;;;;1.00;0.70;;;11.80;99.90;;;;;;5023451;28;20174;-68
2023/12/28 02:19:26;;;;;;;0.85;0.73;;;11.80;99.90;;;;;;5031577;28;20180;-69
2023/12/28 02:21:55;;;;;;;1.20;0.88;;;11.70;99.90;;;;;;5033334;28;20174;-69
2023/12/28 02:24:20;;;;;;;1.42;0.85;;;11.70;99.90;;;;;;5012990;28;20193;-68
2023/12/28 02:26:48;;;;;;;1.23;1.00;;;11.70;99.90;;;;;;5031711;28;20182;-68
2023/12/28 02:29:20;;;;;;;0.88;0.68;;;11.70;99.90;;;;;;5038691;28;20241;-68
2023/12/28 02:32:04;;;;;;;1.15;0.77;;;11.70;99.90;;;;;;5015796;28;20262;-69
2023/12/28 02:34:40;;;;;;;1.20;0.70;;;11.70;99.90;;;;;;5016823;28;20224;-69
2023/12/28 02:37:06;;;;;;;1.05;0.90;;;11.70;99.90;;;;;;5013965;28;20217;-68
2023/12/28 02:39:36;;;;;;;0.90;0.70;;;11.70;99.90;;;;;;5015480;28;20204;-67
2023/12/28 02:42:01;;;;;;;0.80;0.63;;;11.70;99.90;;;;;;5015548;28;20193;-67
2023/12/28 02:44:27;;;;;;;1.10;0.98;;;11.70;99.90;;;;;;5004436;28;20170;-67
2023/12/28 02:46:53;;;;;;;1.40;0.90;;;11.70;99.90;;;;;;5032825;28;20192;-67
2023/12/28 02:49:18;;;;;;;1.15;0.90;;;11.60;99.90;;;;;;5018430;28;20205;-67
2023/12/28 02:51:47;;;;;;;0.88;0.80;;;11.60;99.90;;;;;;5014369;28;20229;-69
2023/12/28 02:54:13;;;;;;;0.80;0.80;;;11.60;99.90;;;;;;5016884;28;20175;-69
2023/12/28 02:56:40;;;;;;;1.02;0.90;;;11.60;99.90;;;;;;5016462;28;20197;-68
2023/12/28 02:59:11;;;;;;;1.73;0.80;;;11.60;99.90;;;;;;5017282;28;20174;-67
2023/12/28 03:01:36;;;;;;;1.23;0.90;;;11.60;99.90;;;;;;5021536;28;20179;-68
2023/12/28 03:04:09;;;;;;;1.42;0.90;;;11.50;99.90;;;;;;5031657;28;20181;-70
2023/12/28 03:06:35;;;;;;;0.98;0.77;;;11.50;99.90;;;;;;5018162;28;20219;-68
2023/12/28 03:09:01;;;;;;;1.42;0.90;;;11.50;99.90;;;;;;5015734;28;20229;-69
2023/12/28 03:11:26;;;;;;;0.95;0.70;;;11.40;99.90;;;;;;5017552;28;20521;-69
2023/12/28 03:13:54;;;;;;;1.10;0.98;;;11.50;99.90;;;;;;5023459;28;20197;-68
2023/12/28 03:16:22;;;;;;;1.58;0.90;;;11.40;99.90;;;;;;5013663;28;20194;-67
2023/12/28 03:18:50;;;;;;;1.65;1.00;;;11.40;99.90;;;;;;5008634;28;20190;-68
2023/12/28 03:21:16;;;;;;;1.42;0.90;;;11.40;99.90;;;;;;5022101;28;20209;-68
2023/12/28 03:23:43;;;;;;;0.63;0.60;;;11.30;99.90;;;;;;5022975;28;20181;-67
2023/12/28 03:26:09;;;;;;;1.10;0.80;;;11.30;99.90;;;;;;5017189;28;20186;-69
2023/12/28 03:28:34;;;;;;;1.20;0.80;;;11.30;99.90;;;;;;5014332;28;20248;-67
2023/12/28 03:31:07;;;;;;;1.20;0.80;;;11.30;99.90;;;;;;5018683;28;20198;-68
2023/12/28 03:33:33;;;;;;;1.15;1.00;;;11.30;99.90;;;;;;5020564;28;20171;-69
2023/12/28 03:35:58;;;;;;;1.05;0.95;;;11.40;99.90;;;;;;5019790;28;20236;-68
2023/12/28 03:38:24;;;;;;;1.35;0.90;;;11.30;99.90;;;;;;5019239;28;20258;-69
2023/12/28 03:40:52;;;;;;;0.85;0.80;;;11.30;99.90;;;;;;5033569;28;20198;-69
2023/12/28 03:43:17;;;;;;;1.10;0.90;;;11.30;99.90;;;;;;5016792;28;20182;-69
2023/12/28 03:45:48;;;;;;;1.10;0.75;;;11.30;99.90;;;;;;5020047;28;20242;-69
2023/12/28 03:48:13;;;;;;;1.45;0.90;;;11.30;99.90;;;;;;5019521;28;20206;-68
2023/12/28 03:50:44;;;;;;;0.88;0.70;;;11.40;99.90;;;;;;5020979;28;20247;-69
2023/12/28 03:53:11;;;;;;;1.33;0.80;;;11.30;99.90;;;;;;5019393;28;20166;-69
2023/12/28 03:55:37;;;;;;;1.85;1.10;;;11.30;99.90;;;;;;5016620;28;20195;-69
2023/12/28 03:58:03;;;;;;;2.28;0.98;;;11.30;99.90;;;;;;5021760;28;20175;-67
2023/12/28 04:00:28;;;;;;;0.68;0.68;;;11.30;99.90;;;;;;5017543;28;20170;-68
2023/12/28 04:02:58;;;;;;;1.40;0.90;;;11.30;99.90;;;;;;5019684;28;20264;-68
2023/12/28 04:05:24;;;;;;;1.48;1.00;;;11.30;99.90;;;;;;5019509;28;20257;-68
2023/12/28 04:07:51;;;;;;;1.30;1.10;;;11.30;99.90;;;;;;5020204;28;20241;-68
2023/12/28 04:10:32;;;;;;;2.35;1.88;;;11.30;99.90;;;;;;5020073;28;20200;-69
2023/12/28 04:12:59;;;;;;;2.72;1.67;;;11.30;99.90;;;;;;5012274;28;20235;-68
2023/12/28 04:15:27;;;;;;;2.10;1.40;;;11.30;99.90;;;;;;5016940;28;20178;-68
2023/12/28 04:17:52;;;;;;;1.38;1.20;;;11.30;99.90;;;;;;5027786;28;20244;-68
2023/12/28 04:20:20;;;;;;;2.65;1.20;;;11.30;99.90;;;;;;5007767;28;20389;-68
2023/12/28 04:22:51;;;;;;;1.70;1.30;;;11.30;99.90;;;;;;5019175;28;20173;-68
2023/12/28 04:25:16;;;;;;;2.15;1.30;;;11.40;99.90;;;;;;5015891;28;20170;-68
2023/12/28 04:27:43;;;;;;;1.60;1.00;;;11.40;99.90;;;;;;5012336;28;20213;-68
2023/12/28 04:30:12;;;;;;;2.00;1.10;;;11.40;99.90;;;;;;5019123;28;20236;-68
2023/12/28 04:32:40;;;;;;;1.45;1.00;;;11.40;99.90;;;;;;5018897;28;20190;-68
2023/12/28 04:35:10;;;;;;;1.48;1.05;;;11.40;99.90;;;;;;5018586;28;20186;-68
2023/12/28 04:37:36;;;;;;;1.67;1.10;;;11.40;99.90;;;;;;5013261;28;20170;-68
2023/12/28 04:40:03;;;;;;;1.30;0.90;;;11.40;99.90;;;;;;5018922;28;20193;-69
2023/12/28 04:42:29;;;;;;;1.70;1.00;;;11.40;99.90;;;;;;5015012;28;20225;-68
2023/12/28 04:44:54;;;;;;;1.50;1.20;;;11.40;99.90;;;;;;5026894;28;20220;-68
2023/12/28 04:47:23;;;;;;;1.30;1.08;;;11.30;99.90;;;;;;5019041;28;20518;-69
2023/12/28 04:49:50;;;;;;;1.00;0.90;;;11.20;99.90;;;;;;5015931;28;20174;-68
2023/12/28 04:52:16;;;;;;;1.38;1.05;;;11.20;99.90;;;;;;5012690;28;20194;-68
2023/12/28 04:54:44;;;;;;;2.25;1.10;;;11.20;99.90;;;;;;5021184;28;20231;-68
2023/12/28 04:57:12;;;;;;;2.10;1.20;;;11.10;99.90;;;;;;5030347;28;20201;-68
2023/12/28 04:59:41;;;;;;;1.40;0.98;;;11.00;99.90;;;;;;5018634;28;20244;-69
2023/12/28 05:02:07;;;;;;;2.13;1.20;;;10.90;99.90;;;;;;5017803;28;20292;-68
2023/12/28 05:04:37;;;;;;;1.00;0.80;;;11.00;99.90;;;;;;5018848;28;20178;-68
2023/12/28 05:07:03;;;;;;;1.27;1.00;;;10.90;99.90;;;;;;5035573;28;20212;-68
2023/12/28 05:09:31;;;;;;;2.10;1.10;;;10.90;99.90;;;;;;5018411;28;20174;-68
2023/12/28 05:11:59;;;;;;;1.30;1.10;;;10.80;99.90;;;;;;5015764;28;20201;-68
2023/12/28 05:14:26;;;;;;;1.52;1.00;;;10.80;99.90;;;;;;5017624;28;20197;-68
2023/12/28 05:16:53;;;;;;;1.55;1.17;;;10.80;99.90;;;;;;5035273;28;20190;-68
2023/12/28 05:19:18;;;;;;;1.05;0.85;;;10.80;99.90;;;;;;5017806;28;20200;-68
2023/12/28 05:21:44;;;;;;;2.97;1.00;;;10.80;99.90;;;;;;5019693;28;20182;-68
2023/12/28 05:24:09;;;;;;;1.60;1.08;;;10.80;99.90;;;;;;5019567;28;20324;-68
2023/12/28 05:26:40;;;;;;;1.13;0.90;;;10.80;99.90;;;;;;5003790;28;20202;-68
2023/12/28 05:29:08;;;;;;;1.23;0.90;;;10.70;99.90;;;;;;5023480;28;20182;-68
2023/12/28 05:31:41;;;;;;;1.40;1.08;;;10.80;99.90;;;;;;5018162;28;20194;-68
2023/12/28 05:34:09;;;;;;;1.60;1.10;;;10.80;99.90;;;;;;5016279;28;20182;-68
2023/12/28 05:36:34;;;;;;;0.95;0.82;;;10.70;99.90;;;;;;5021079;28;20188;-68
2023/12/28 05:39:00;;;;;;;1.30;0.90;;;10.70;99.90;;;;;;5018281;28;20201;-67
2023/12/28 05:41:26;;;;;;;1.30;1.00;;;10.70;99.90;;;;;;5016756;28;20239;-68
2023/12/28 05:43:51;;;;;;;1.52;0.95;;;10.80;99.90;;;;;;5014120;28;20260;-68
2023/12/28 05:46:19;;;;;;;1.50;1.00;;;10.70;99.90;;;;;;5017587;28;20260;-68
2023/12/28 05:48:45;;;;;;;1.95;0.82;;;10.70;99.90;;;;;;5016222;28;20212;-68
2023/12/28 05:51:13;;;;;;;2.72;1.00;;;10.70;99.90;;;;;;5031520;28;20260;-68
2023/12/28 05:53:41;;;;;;;1.63;1.10;;;10.70;99.90;;;;;;4998580;28;20171;-68
2023/12/28 05:56:09;;;;;;;1.77;1.10;;;10.70;99.90;;;;;;4998647;28;20206;-68
2023/12/28 05:58:34;;;;;;;1.58;0.95;;;10.70;99.90;;;;;;5006825;28;20194;-68
2023/12/28 06:01:04;;;;;;;1.00;0.90;;;10.70;99.90;;;;;;5014791;28;20244;-68
2023/12/28 06:03:33;;;;;;;1.48;0.93;;;10.70;99.90;;;;;;5027657;28;20223;-68
2023/12/28 06:05:59;;;;;;;2.38;0.98;;;10.70;99.90;;;;;;5018147;28;20206;-69
2023/12/28 06:08:27;;;;;;;1.20;0.90;;;10.60;99.90;;;;;;5021836;28;20216;-68
2023/12/28 06:10:53;;;;;;;2.83;1.20;;;10.70;99.90;;;;;;5026370;28;20205;-68
2023/12/28 06:13:23;;;;;;;1.77;1.00;;;10.70;99.90;;;;;;5018074;28;20173;-68
2023/12/28 06:15:49;;;;;;;1.52;1.00;;;10.60;99.90;;;;;;5013939;28;20246;-68
2023/12/28 06:18:14;;;;;;;2.80;0.95;;;10.70;99.90;;;;;;4998216;28;20306;-68
2023/12/28 06:20:45;;;;;;;2.08;1.20;;;10.70;99.90;;;;;;5011666;28;20247;-68
2023/12/28 06:23:13;;;;;;;1.38;0.90;;;10.50;99.90;;;;;;5004728;28;20166;-68
2023/12/28 06:25:40;;;;;;;1.00;0.80;;;10.50;99.90;;;;;;5017088;28;20166;-68
2023/12/28 06:28:08;;;;;;;1.40;0.82;;;10.50;99.90;;;;;;5019005;28;20185;-68
2023/12/28 06:30:36;;;;;;;1.13;0.90;;;10.50;99.90;;;;;;5015180;28;20198;-68
2023/12/28 06:33:02;;;;;;;1.52;1.10;;;10.50;99.90;;;;;;5018202;28;20279;-68
2023/12/28 06:35:32;;;;;;;1.35;1.02;;;10.40;99.90;;;;;;5016519;28;20193;-67
2023/12/28 06:37:58;;;;;;;1.95;1.20;;;10.40;99.90;;;;;;5003123;28;20194;-68
2023/12/28 06:40:23;;;;;;;1.70;1.20;;;10.40;99.90;;;;;;5017031;28;20182;-68
2023/12/28 06:42:49;;;;;;;2.03;1.10;;;10.40;99.90;;;;;;5015075;28;20240;-68
2023/12/28 06:45:15;;;;;;;1.60;1.20;;;10.30;99.90;;;;;;5017053;28;20184;-67
2023/12/28 06:47:40;;;;;;;2.63;1.35;;;10.20;99.90;;;;;;5018615;28;20500;-67
2023/12/28 06:50:09;;;;;;;1.33;1.10;;;10.20;99.90;;;;;;5013325;28;20281;-67
2023/12/28 06:52:34;;;;;;;2.42;1.23;;;10.10;99.90;;;;;;5018961;28;20189;-67
2023/12/28 06:55:02;;;;;;;2.90;1.35;;;10.10;99.90;;;;;;5021262;28;20180;-68
2023/12/28 06:57:28;;;;;;;2.20;1.42;;;10.10;99.90;;;;;;5020279;28;20194;-67
2023/12/28 07:00:01;;;;;;;1.88;1.20;;;10.10;99.90;;;;;;5020931;28;20259;-67
2023/12/28 07:02:29;;;;;;;1.60;1.20;;;10.10;99.90;;;;;;5017253;28;20174;-67
2023/12/28 07:04:56;;;;;;;2.00;1.10;;;10.10;99.90;;;;;;5035604;28;20170;-68
2023/12/28 07:07:22;;;;;;;1.23;1.00;;;10.10;99.90;;;;;;5018416;28;20529;-68
2023/12/28 07:09:48;;;;;;;1.10;0.80;;;10.10;99.90;;;;;;5021110;28;20212;-67
2023/12/28 07:12:13;;;;;;;1.38;1.00;;;10.10;99.90;;;;;;5022507;28;20254;-67
2023/12/28 07:14:39;;;;;;;2.20;1.23;;;10.10;99.90;;;;;;5017497;28;20197;-67
2023/12/28 07:17:04;;;;;;;1.30;0.90;;;10.10;99.90;;;;;;5019134;28;20202;-68
2023/12/28 07:19:30;;;;;;;2.55;1.00;;;10.10;99.90;;;;;;5020880;28;20200;-67
2023/12/28 07:21:58;;;;;;;1.13;1.00;;;10.10;99.90;;;;;;5018911;28;20201;-68
2023/12/28 07:24:24;;;;;;;4.57;1.70;;;10.20;99.90;;;;;;5020915;28;20178;-67
2023/12/28 07:26:50;;;;;;;1.83;1.00;;;10.10;99.90;;;;;;5020673;28;20178;-67
2023/12/28 07:29:15;;;;;;;1.45;1.00;;;10.10;99.90;;;;;;5017201;28;20207;-68
2023/12/28 07:31:44;;;;;;;1.98;1.05;;;10.10;99.90;;;;;;5011238;28;20194;-67
2023/12/28 07:34:09;;;;;;;1.60;1.10;;;10.00;99.90;;;;;;5021214;28;20232;-68
2023/12/28 07:36:35;;;;;;;2.65;1.10;;;10.10;99.90;;;;;;5019898;28;20268;-68
2023/12/28 07:39:05;;;;;;;1.73;1.10;;;10.00;99.90;;;;;;5011865;28;20216;-67
2023/12/28 07:41:33;;;;;;;1.80;1.13;;;10.00;99.90;;;;;;5016007;28;20186;-65
2023/12/28 07:44:01;;;;;;;2.30;1.00;;;9.90;99.90;;;;;;5015724;28;20178;-67
2023/12/28 07:46:29;;;;;;;1.90;1.20;;;9.90;99.90;;;;;;5020113;28;20415;-68
2023/12/28 07:48:54;;;;;;;1.92;1.10;;;9.90;99.90;;;;;;5017150;28;20195;-67
2023/12/28 07:51:22;;;;;;;1.85;1.20;;;9.80;99.90;;;;;;5028123;28;20213;-70
2023/12/28 07:53:48;;;;;;;1.90;1.10;;;9.80;99.90;;;;;;5030367;28;20175;-69
2023/12/28 07:56:18;;;;;;;1.85;1.10;;;9.80;99.90;;;;;;5014168;28;20200;-70
2023/12/28 07:58:46;;;;;;;1.92;1.20;;;9.80;99.90;;;;;;5014016;28;20170;-67
2023/12/28 08:01:12;;;;;;;3.13;1.75;;;9.80;99.90;;;;;;5020017;28;20187;-67
2023/12/28 08:03:39;;;;;;;2.63;1.48;;;9.80;99.90;;;;;;5023786;28;20174;-68
2023/12/28 08:06:12;;;;;;;1.35;1.05;;;9.80;99.90;;;;;;5019710;28;20182;-66
2023/12/28 08:08:40;;;;;;;2.30;1.30;;;9.70;99.90;;;;;;5019923;28;20212;-69
2023/12/28 08:11:08;;;;;;;2.25;1.20;;;9.70;99.90;;;;;;5018637;28;20205;-69
2023/12/28 08:13:36;;;;;;;2.45;2.00;;;9.80;99.90;;;;;;5018899;28;20170;-67
2023/12/28 08:16:03;;;;;;;2.50;1.55;;;9.70;99.90;;;;;;5029594;28;20233;-67
2023/12/28 08:18:31;;;;;;;2.42;1.50;;;9.70;99.90;;;;;;5021715;28;20210;-68
2023/12/28 08:20:57;;;;;;;2.33;1.42;;;9.70;99.90;;;;;;5019947;28;20188;-68
2023/12/28 08:23:25;;;;;;;1.90;1.20;;;9.70;99.90;;;;;;5020084;28;20184;-67
2023/12/28 08:25:50;;;;;;;1.40;1.10;;;9.70;99.90;;;;;;5020008;28;20509;-69
2023/12/28 08:28:18;;;;;;;2.22;1.20;;;9.70;99.90;;;;;;5022140;28;20237;-68
2023/12/28 08:30:46;;;;;;;1.60;1.05;;;9.70;99.90;;;;;;5022689;28;20185;-67
2023/12/28 08:33:12;;;;;;;2.10;1.30;;;9.80;99.90;;;;;;5016351;28;20268;-68
2023/12/28 08:35:40;;;;;;;2.35;1.05;;;9.80;99.90;;;;;;5022042;28;20269;-68
2023/12/28 08:38:06;;;;;;;3.47;1.25;;;9.70;99.90;;;;;;5019451;28;20171;-68
2023/12/28 08:40:36;;;;;;;2.53;1.30;;;9.80;99.90;;;;;;5019286;28;20255;-68
2023/12/28 08:43:06;;;;;;;2.38;1.20;;;9.90;99.90;;;;;;5017382;28;20174;-68
2023/12/28 08:45:34;;;;;;;2.30;1.02;;;9.90;99.90;;;;;;5018149;28;20238;-68
2023/12/28 08:48:00;;;;;;;3.03;1.33;;;9.90;99.90;;;;;;5005282;28;20190;-68
2023/12/28 08:50:27;;;;;;;2.58;1.00;;;9.90;99.90;;;;;;5008976;28;20185;-68
2023/12/28 08:52:56;;;;;;;2.47;1.10;;;9.90;99.90;;;;;;5018268;28;20197;-68
2023/12/28 08:55:24;;;;;;;2.95;1.35;;;9.90;99.90;;;;;;5018753;28;20206;-68
2023/12/28 08:57:49;;;;;;;3.45;1.42;;;10.00;99.90;;;;;;5019079;28;20301;-68
2023/12/28 09:00:20;;;;;;;1.23;1.10;;;10.00;99.90;;;;;;5035392;28;20235;-68
2023/12/28 09:02:45;;;;;;;1.45;0.90;;;10.10;99.90;;;;;;5017050;28;20178;-69
2023/12/28 09:05:11;;;;;;;1.52;1.10;;;10.10;99.90;;;;;;5032670;28;20273;-69
2023/12/28 09:07:42;;;;;;;1.67;0.85;;;10.20;99.90;;;;;;5018806;28;20202;-68
2023/12/28 09:10:11;;;;;;;1.52;1.05;;;10.20;99.90;;;;;;5017284;28;20213;-68
2023/12/28 09:12:37;;;;;;;2.25;1.10;;;10.40;99.90;;;;;;5019482;28;20221;-68
2023/12/28 09:15:05;;;;;;;2.03;1.08;;;10.50;99.90;;;;;;5018015;28;20232;-68
2023/12/28 09:17:34;;;;;;;1.65;1.00;;;10.60;99.90;;;;;;5044301;28;20224;-68
2023/12/28 09:20:01;;;;;;;1.67;1.00;;;10.90;99.90;;;;;;5026967;28;20181;-68
2023/12/28 09:22:27;;;;;;;3.40;1.23;;;11.10;99.90;;;;;;5039767;28;20237;-68
2023/12/28 09:24:52;;;;;;;4.28;1.45;;;11.40;99.90;;;;;;5019205;28;20268;-63
2023/12/28 09:27:18;;;;;;;2.30;1.58;;;11.60;99.90;;;;;;5012969;28;20236;-63
2023/12/28 09:29:44;;;;;;;3.40;1.23;;;11.90;99.90;;;;;;5018469;28;20174;-63
2023/12/28 09:32:09;;;;;;;3.70;1.23;;;12.20;99.90;;;;;;5014737;28;20198;-63
2023/12/28 09:34:37;;;;;;;2.83;1.23;;;12.40;99.90;;;;;;5024483;28;20193;-64
2023/12/28 09:37:03;;;;;;;2.38;1.20;;;12.70;99.90;;;;;;5021404;28;20180;-63
2023/12/28 09:39:31;;;;;;;2.75;1.10;;;12.80;99.90;;;;;;5024876;28;20262;-63
2023/12/28 09:42:06;;;;;;;3.42;1.30;;;12.90;99.90;;;;;;5027324;28;20205;-63
2023/12/28 09:44:34;;;;;;;3.13;1.05;;;13.10;99.90;;;;;;5017806;28;20189;-64
2023/12/28 09:47:02;;;;;;;2.80;1.20;;;13.30;99.90;;;;;;5024895;28;20171;-63
2023/12/28 09:49:30;;;;;;;4.00;1.90;;;13.40;99.90;;;;;;5018063;28;20371;-63
2023/12/28 09:52:00;;;;;;;2.97;1.10;;;13.40;99.90;;;;;;5016633;28;20292;-63
2023/12/28 09:54:26;;;;;;;2.28;1.05;;;13.50;99.90;;;;;;5029177;28;20440;-63
2023/12/28 09:56:52;;;;;;;4.20;1.27;;;13.60;99.90;;;;;;5026565;28;20199;-63
2023/12/28 09:59:19;;;;;;;2.40;1.10;;;13.60;99.90;;;;;;5014994;28;20175;-63
2023/12/28 10:01:46;;;;;;;3.83;1.63;;;13.70;99.90;;;;;;5012564;28;20183;-63
2023/12/28 10:04:12;;;;;;;2.65;1.20;;;13.70;99.90;;;;;;5020560;28;20272;-65
2023/12/28 10:06:38;;;;;;;5.20;1.42;;;13.70;99.90;;;;;;5019106;28;20213;-63
2023/12/28 10:09:08;;;;;;;5.25;1.65;;;13.80;99.90;;;;;;5017482;28;20189;-63
2023/12/28 10:11:34;;;;;;;4.10;1.38;;;13.80;99.90;;;;;;5025686;28;20204;-63
2023/12/28 10:14:00;;;;;;;3.28;1.40;;;13.80;99.90;;;;;;5022045;28;20177;-63
2023/12/28 10:16:28;;;;;;;3.55;1.15;;;13.80;99.90;;;;;;5032225;28;20233;-61
2023/12/28 10:18:57;;;;;;;2.97;1.40;;;13.90;99.90;;;;;;5016271;28;20269;-63
2023/12/28 10:21:25;;;;;;;3.63;1.33;;;13.90;99.90;;;;;;5017307;28;20202;-62
2023/12/28 10:23:51;;;;;;;4.03;1.20;;;14.00;99.90;;;;;;5017196;28;20280;-62
2023/12/28 10:26:21;;;;;;;4.47;1.33;;;14.00;99.90;;;;;;5017693;28;20205;-62
2023/12/28 10:28:46;;;;;;;2.90;1.33;;;14.10;99.90;;;;;;5016479;28;20188;-62
2023/12/28 10:31:12;;;;;;;4.50;1.10;;;14.20;99.90;;;;;;5017326;28;20190;-62
2023/12/28 10:33:40;;;;;;;3.72;1.25;;;14.20;99.90;;;;;;5018958;28;20178;-63
2023/12/28 10:36:07;;;;;;;2.13;1.10;;;14.30;99.90;;;;;;5007696;28;20194;-62
2023/12/28 10:38:37;;;;;;;3.35;1.20;;;14.40;99.90;;;;;;5014601;28;20179;-63
2023/12/28 10:41:14;;;;;;;3.88;1.20;;;14.50;99.90;;;;;;5024275;28;20186;-63
2023/12/28 10:43:47;;;;;;;3.17;1.40;;;14.60;99.90;;;;;;5022914;28;20180;-63
2023/12/28 10:46:42;;;;;;;2.53;1.20;;;14.70;99.90;;;;;;5016421;28;20182;-63
2023/12/28 10:49:17;;;;;;;4.55;1.23;;;14.70;99.90;;;;;;5001242;28;20206;-63
2023/12/28 10:51:43;;;;;;;2.50;1.13;;;14.80;99.90;;;;;;5016956;28;20196;-62
2023/12/28 10:54:36;;;;;;;2.45;1.10;;;14.70;99.90;;;;;;5017443;28;20198;-63
2023/12/28 10:57:29;;;;;;;2.40;1.10;;;14.70;99.90;;;;;;5015542;28;20174;-62
2023/12/28 11:00:11;;;;;;;3.85;1.23;;;14.80;99.90;;;;;;5002519;28;20260;-62
2023/12/28 11:02:53;;;;;;;3.90;1.23;;;14.80;99.90;;;;;;5033566;28;20523;-62
2023/12/28 11:05:23;;;;;;;2.58;1.17;;;14.80;99.90;;;;;;5033856;28;20181;-62
2023/12/28 11:07:53;;;;;;;2.50;1.30;;;14.90;99.90;;;;;;5033890;28;20170;-63
2023/12/28 11:10:23;;;;;;;4.47;1.33;;;14.90;99.90;;;;;;5018338;28;20273;-63
2023/12/28 11:12:50;;;;;;;4.28;1.13;;;14.90;99.90;;;;;;5018870;28;20312;-62
2023/12/28 11:15:17;;;;;;;3.33;1.23;;;14.90;99.90;;;;;;5017131;28;20249;-63
2023/12/28 11:17:43;;;;;;;4.45;1.10;;;14.90;99.90;;;;;;5018819;28;20357;-63
2023/12/28 11:20:10;;;;;;;3.90;1.10;;;14.90;99.90;;;;;;5016731;28;20188;-64
2023/12/28 11:22:36;;;;;;;2.55;1.23;;;15.00;99.90;;;;;;5015326;28;20236;-63
2023/12/28 11:25:04;;;;;;;2.63;1.10;;;15.10;99.90;;;;;;5032290;28;20194;-62
2023/12/28 11:27:36;;;;;;;1.63;1.02;;;15.20;99.90;;;;;;5025118;28;20199;-63
2023/12/28 11:30:04;;;;;;;3.95;1.13;;;15.30;99.90;;;;;;5027906;28;20206;-63
2023/12/28 11:32:35;;;;;;;2.85;0.90;;;15.40;99.90;;;;;;5013835;28;20229;-62
2023/12/28 11:35:01;;;;;;;2.72;1.10;;;15.50;99.90;;;;;;5011377;28;20170;-63
2023/12/28 11:37:29;;;;;;;5.25;1.27;;;15.70;99.90;;;;;;5036161;28;20223;-63
2023/12/28 11:39:57;;;;;;;2.72;1.10;;;15.90;99.90;;;;;;5019423;28;20196;-63
2023/12/28 11:42:23;;;;;;;3.47;1.20;;;15.90;99.90;;;;;;5020248;28;20252;-63
2023/12/28 11:44:55;;;;;;;3.47;1.20;;;15.90;99.90;;;;;;5020328;28;20248;-63
2023/12/28 11:47:22;;;;;;;2.53;1.20;;;16.00;99.90;;;;;;5020486;28;20202;-63
2023/12/28 11:49:51;;;;;;;4.22;1.33;;;16.10;99.90;;;;;;5020272;28;20174;-63
2023/12/28 11:52:28;;;;;;;3.78;1.15;;;16.10;99.90;;;;;;5037378;28;20237;-63
2023/12/28 11:54:54;;;;;;;2.03;1.00;;;16.20;99.90;;;;;;5022869;28;20284;-64
2023/12/28 11:57:23;;;;;;;2.88;0.82;;;16.30;99.90;;;;;;5036017;28;20174;-63
2023/12/28 11:59:56;;;;;;;3.65;1.15;;;16.30;99.90;;;;;;5036036;28;20411;-64
2023/12/28 12:02:24;;;;;;;3.88;1.23;;;16.40;99.90;;;;;;5023021;28;20198;-63
2023/12/28 12:04:50;;;;;;;4.93;1.25;;;16.40;99.90;;;;;;5015270;28;20193;-63
2023/12/28 12:07:16;;;;;;;2.58;1.02;;;16.50;99.90;;;;;;5021450;28;20182;-63
2023/12/28 12:09:45;;;;;;;4.32;1.52;;;16.50;99.90;;;;;;5020015;28;20615;-63
2023/12/28 12:12:11;;;;;;;2.88;0.90;;;16.50;99.90;;;;;;5019721;28;20252;-63
2023/12/28 12:14:36;;;;;;;3.15;1.00;;;16.50;99.90;;;;;;5027571;28;20189;-63
2023/12/28 12:17:05;;;;;;;3.92;1.45;;;16.50;99.90;;;;;;5019592;28;20197;-63
2023/12/28 12:19:31;;;;;;;2.25;0.98;;;16.60;99.90;;;;;;5016648;28;20201;-64
2023/12/28 12:22:00;;;;;;;4.53;1.58;;;16.60;99.90;;;;;;5027667;28;20204;-63
2023/12/28 12:24:25;;;;;;;1.92;0.95;;;16.60;99.90;;;;;;5021495;28;20228;-63
2023/12/28 12:26:52;;;;;;;3.67;1.20;;;16.60;99.90;;;;;;5019388;28;20265;-63
2023/12/28 12:29:19;;;;;;;2.72;1.10;;;16.50;99.90;;;;;;5019761;28;20227;-63
2023/12/28 12:31:47;;;;;;;3.25;1.30;;;16.50;99.90;;;;;;5036783;28;20202;-63
2023/12/28 12:34:16;;;;;;;4.72;1.35;;;16.50;99.90;;;;;;5037161;28;20185;-63
2023/12/28 12:36:42;;;;;;;5.05;1.02;;;16.50;99.90;;;;;;5019278;28;20181;-63
2023/12/28 12:39:11;;;;;;;3.80;1.25;;;16.50;99.90;;;;;;5002188;28;20194;-63
2023/12/28 12:41:39;;;;;;;3.20;1.20;;;16.50;99.90;;;;;;4999514;28;20187;-63
2023/12/28 12:44:10;;;;;;;2.88;1.13;;;16.50;99.90;;;;;;4999113;28;20170;-63
2023/12/28 12:46:38;;;;;;;2.83;1.05;;;16.40;99.90;;;;;;4999622;28;20202;-64
2023/12/28 12:49:05;;;;;;;3.45;1.50;;;16.40;99.90;;;;;;4999469;28;20179;-63
2023/12/28 12:51:31;;;;;;;4.20;1.05;;;16.30;99.90;;;;;;5012708;28;20267;-64